sensor_id;sensor_type;location;lat;lon;timestamp;P1;durP1;ratioP1;P2;durP2;ratioP2
64641;SDS011;59936;51.490;5.436;2023-10-31T00:00:11;12.60;;;8.20;;
64641;SDS011;59936;51.490;5.436;2023-10-31T00:05:58;7.00;;;5.40;;
64641;SDS011;59936;51.490;5.436;2023-10-31T00:08:27;10.90;;;6.40;;
64641;SDS011;59936;51.490;5.436;2023-10-31T00:10:56;9.80;;;6.10;;
64641;SDS011;59936;51.490;5.436;2023-10-31T00:13:24;17.70;;;7.30;;
64641;SDS011;59936;51.490;5.436;2023-10-31T00:15:53;9.20;;;6.60;;
64641;SDS011;59936;51.490;5.436;2023-10-31T00:18:21;8.70;;;5.90;;
64641;SDS011;59936;51.490;5.436;2023-10-31T00:20:50;13.00;;;6.10;;
64641;SDS011;59936;51.490;5.436;2023-10-31T00:23:19;7.50;;;4.70;;
64641;SDS011;59936;51.490;5.436;2023-10-31T00:25:47;7.90;;;4.90;;
64641;SDS011;59936;51.490;5.436;2023-10-31T00:28:16;5.70;;;4.40;;
64641;SDS011;59936;51.490;5.436;2023-10-31T00:30:44;7.90;;;4.60;;
64641;SDS011;59936;51.490;5.436;2023-10-31T00:33:13;8.40;;;5.10;;
64641;SDS011;59936;51.490;5.436;2023-10-31T00:35:42;6.70;;;4.10;;
64641;SDS011;59936;51.490;5.436;2023-10-31T00:38:10;10.00;;;4.80;;
64641;SDS011;59936;51.490;5.436;2023-10-31T00:40:39;4.40;;;4.00;;
64641;SDS011;59936;51.490;5.436;2023-10-31T00:43:07;4.10;;;3.70;;
64641;SDS011;59936;51.490;5.436;2023-10-31T00:45:36;10.30;;;3.80;;
64641;SDS011;59936;51.490;5.436;2023-10-31T00:48:04;5.10;;;3.50;;
64641;SDS011;59936;51.490;5.436;2023-10-31T00:50:33;4.40;;;3.20;;
64641;SDS011;59936;51.490;5.436;2023-10-31T00:53:02;3.60;;;3.30;;
64641;SDS011;59936;51.490;5.436;2023-10-31T00:55:30;9.50;;;4.50;;
64641;SDS011;59936;51.490;5.436;2023-10-31T00:57:59;9.50;;;4.30;;
64641;SDS011;59936;51.490;5.436;2023-10-31T01:00:27;6.90;;;4.60;;
64641;SDS011;59936;51.490;5.436;2023-10-31T01:02:56;6.50;;;4.10;;
64641;SDS011;59936;51.490;5.436;2023-10-31T01:05:24;14.30;;;5.50;;
64641;SDS011;59936;51.490;5.436;2023-10-31T01:07:53;13.50;;;5.50;;
64641;SDS011;59936;51.490;5.436;2023-10-31T01:10:22;12.90;;;7.80;;
64641;SDS011;59936;51.490;5.436;2023-10-31T01:12:51;17.20;;;8.00;;
64641;SDS011;59936;51.490;5.436;2023-10-31T01:15:19;18.20;;;10.40;;
64641;SDS011;59936;51.490;5.436;2023-10-31T01:17:48;18.80;;;10.40;;
64641;SDS011;59936;51.490;5.436;2023-10-31T01:20:17;25.60;;;12.70;;
64641;SDS011;59936;51.490;5.436;2023-10-31T01:22:45;24.80;;;12.90;;
64641;SDS011;59936;51.490;5.436;2023-10-31T01:25:14;27.50;;;14.50;;
64641;SDS011;59936;51.490;5.436;2023-10-31T01:27:42;27.60;;;14.70;;
64641;SDS011;59936;51.490;5.436;2023-10-31T01:30:11;34.00;;;16.70;;
64641;SDS011;59936;51.490;5.436;2023-10-31T01:32:40;37.60;;;19.30;;
64641;SDS011;59936;51.490;5.436;2023-10-31T01:35:09;33.90;;;17.40;;
64641;SDS011;59936;51.490;5.436;2023-10-31T01:37:38;34.40;;;18.80;;
64641;SDS011;59936;51.490;5.436;2023-10-31T01:40:06;37.30;;;19.90;;
64641;SDS011;59936;51.490;5.436;2023-10-31T01:42:36;39.90;;;21.40;;
64641;SDS011;59936;51.490;5.436;2023-10-31T01:45:04;52.70;;;23.40;;
64641;SDS011;59936;51.490;5.436;2023-10-31T01:47:34;40.70;;;21.30;;
64641;SDS011;59936;51.490;5.436;2023-10-31T01:50:02;45.80;;;23.60;;
64641;SDS011;59936;51.490;5.436;2023-10-31T01:52:31;47.80;;;22.70;;
64641;SDS011;59936;51.490;5.436;2023-10-31T01:55:00;54.60;;;22.00;;
64641;SDS011;59936;51.490;5.436;2023-10-31T01:57:30;52.60;;;23.30;;
64641;SDS011;59936;51.490;5.436;2023-10-31T01:59:59;45.90;;;22.00;;
64641;SDS011;59936;51.490;5.436;2023-10-31T02:02:28;47.90;;;24.00;;
64641;SDS011;59936;51.490;5.436;2023-10-31T02:05:01;37.00;;;18.70;;
64641;SDS011;59936;51.490;5.436;2023-10-31T02:07:29;52.10;;;24.20;;
64641;SDS011;59936;51.490;5.436;2023-10-31T02:09:58;49.20;;;23.00;;
64641;SDS011;59936;51.490;5.436;2023-10-31T02:12:33;41.90;;;20.10;;
64641;SDS011;59936;51.490;5.436;2023-10-31T02:15:05;41.00;;;20.60;;
64641;SDS011;59936;51.490;5.436;2023-10-31T02:17:36;44.10;;;21.30;;
64641;SDS011;59936;51.490;5.436;2023-10-31T02:20:04;43.00;;;21.30;;
64641;SDS011;59936;51.490;5.436;2023-10-31T02:22:34;47.20;;;22.00;;
64641;SDS011;59936;51.490;5.436;2023-10-31T02:25:02;45.20;;;19.10;;
64641;SDS011;59936;51.490;5.436;2023-10-31T02:27:43;42.20;;;20.60;;
64641;SDS011;59936;51.490;5.436;2023-10-31T02:30:12;41.30;;;18.80;;
64641;SDS011;59936;51.490;5.436;2023-10-31T02:32:41;50.20;;;23.00;;
64641;SDS011;59936;51.490;5.436;2023-10-31T02:35:10;50.20;;;21.80;;
64641;SDS011;59936;51.490;5.436;2023-10-31T02:37:38;52.70;;;22.80;;
64641;SDS011;59936;51.490;5.436;2023-10-31T02:40:07;50.40;;;22.30;;
64641;SDS011;59936;51.490;5.436;2023-10-31T02:42:36;43.30;;;21.30;;
64641;SDS011;59936;51.490;5.436;2023-10-31T02:45:05;44.20;;;19.40;;
64641;SDS011;59936;51.490;5.436;2023-10-31T02:47:35;47.40;;;21.90;;
64641;SDS011;59936;51.490;5.436;2023-10-31T02:50:03;50.90;;;21.90;;
64641;SDS011;59936;51.490;5.436;2023-10-31T02:52:33;51.80;;;23.10;;
64641;SDS011;59936;51.490;5.436;2023-10-31T02:55:01;49.10;;;23.00;;
64641;SDS011;59936;51.490;5.436;2023-10-31T02:57:30;45.80;;;21.10;;
64641;SDS011;59936;51.490;5.436;2023-10-31T02:59:59;45.10;;;20.70;;
64641;SDS011;59936;51.490;5.436;2023-10-31T03:02:27;45.20;;;20.50;;
64641;SDS011;59936;51.490;5.436;2023-10-31T03:04:56;26.00;;;13.80;;
64641;SDS011;59936;51.490;5.436;2023-10-31T03:07:24;42.60;;;22.40;;
64641;SDS011;59936;51.490;5.436;2023-10-31T03:09:53;38.00;;;19.70;;
64641;SDS011;59936;51.490;5.436;2023-10-31T03:12:21;36.50;;;19.60;;
64641;SDS011;59936;51.490;5.436;2023-10-31T03:14:50;46.80;;;23.50;;
64641;SDS011;59936;51.490;5.436;2023-10-31T03:17:19;42.40;;;20.80;;
64641;SDS011;59936;51.490;5.436;2023-10-31T03:19:47;42.30;;;20.60;;
64641;SDS011;59936;51.490;5.436;2023-10-31T03:22:16;40.70;;;20.00;;
64641;SDS011;59936;51.490;5.436;2023-10-31T03:24:44;38.60;;;20.40;;
64641;SDS011;59936;51.490;5.436;2023-10-31T03:27:13;47.50;;;26.20;;
64641;SDS011;59936;51.490;5.436;2023-10-31T03:29:41;45.10;;;20.90;;
64641;SDS011;59936;51.490;5.436;2023-10-31T03:32:11;53.50;;;26.20;;
64641;SDS011;59936;51.490;5.436;2023-10-31T03:34:40;40.00;;;23.30;;
64641;SDS011;59936;51.490;5.436;2023-10-31T03:37:09;49.00;;;26.10;;
64641;SDS011;59936;51.490;5.436;2023-10-31T03:39:38;45.90;;;24.00;;
64641;SDS011;59936;51.490;5.436;2023-10-31T03:42:06;25.50;;;13.80;;
64641;SDS011;59936;51.490;5.436;2023-10-31T03:44:35;40.40;;;20.60;;
64641;SDS011;59936;51.490;5.436;2023-10-31T03:47:03;47.10;;;24.10;;
64641;SDS011;59936;51.490;5.436;2023-10-31T03:49:32;45.90;;;25.00;;
64641;SDS011;59936;51.490;5.436;2023-10-31T03:52:01;41.60;;;21.80;;
64641;SDS011;59936;51.490;5.436;2023-10-31T03:54:29;52.50;;;24.70;;
64641;SDS011;59936;51.490;5.436;2023-10-31T03:56:58;39.90;;;23.00;;
64641;SDS011;59936;51.490;5.436;2023-10-31T03:59:26;36.50;;;19.90;;
64641;SDS011;59936;51.490;5.436;2023-10-31T04:01:55;40.50;;;22.90;;
64641;SDS011;59936;51.490;5.436;2023-10-31T04:04:24;39.80;;;22.00;;
64641;SDS011;59936;51.490;5.436;2023-10-31T04:06:52;45.10;;;23.60;;
64641;SDS011;59936;51.490;5.436;2023-10-31T04:09:21;38.20;;;19.90;;
64641;SDS011;59936;51.490;5.436;2023-10-31T04:11:49;42.90;;;23.80;;
64641;SDS011;59936;51.490;5.436;2023-10-31T04:14:18;42.30;;;23.10;;
64641;SDS011;59936;51.490;5.436;2023-10-31T04:16:46;35.60;;;22.00;;
64641;SDS011;59936;51.490;5.436;2023-10-31T04:19:15;39.30;;;21.00;;
64641;SDS011;59936;51.490;5.436;2023-10-31T04:21:44;39.00;;;23.10;;
64641;SDS011;59936;51.490;5.436;2023-10-31T04:24:12;30.00;;;18.00;;
64641;SDS011;59936;51.490;5.436;2023-10-31T04:26:41;33.10;;;19.40;;
64641;SDS011;59936;51.490;5.436;2023-10-31T04:29:09;29.50;;;18.20;;
64641;SDS011;59936;51.490;5.436;2023-10-31T04:31:38;30.10;;;19.10;;
64641;SDS011;59936;51.490;5.436;2023-10-31T04:34:07;38.60;;;22.50;;
64641;SDS011;59936;51.490;5.436;2023-10-31T04:36:36;33.50;;;19.30;;
64641;SDS011;59936;51.490;5.436;2023-10-31T04:39:04;33.10;;;20.40;;
64641;SDS011;59936;51.490;5.436;2023-10-31T04:41:33;32.80;;;20.30;;
64641;SDS011;59936;51.490;5.436;2023-10-31T04:44:02;40.10;;;21.40;;
64641;SDS011;59936;51.490;5.436;2023-10-31T04:46:30;36.30;;;21.30;;
64641;SDS011;59936;51.490;5.436;2023-10-31T04:48:59;35.50;;;21.00;;
64641;SDS011;59936;51.490;5.436;2023-10-31T04:51:32;35.70;;;19.90;;
64641;SDS011;59936;51.490;5.436;2023-10-31T04:54:02;33.30;;;17.20;;
64641;SDS011;59936;51.490;5.436;2023-10-31T04:56:31;27.30;;;17.30;;
64641;SDS011;59936;51.490;5.436;2023-10-31T04:59:00;24.50;;;13.70;;
64641;SDS011;59936;51.490;5.436;2023-10-31T05:01:28;16.80;;;10.80;;
64641;SDS011;59936;51.490;5.436;2023-10-31T05:03:57;26.70;;;16.20;;
64641;SDS011;59936;51.490;5.436;2023-10-31T05:06:26;34.00;;;18.10;;
64641;SDS011;59936;51.490;5.436;2023-10-31T05:08:55;33.60;;;19.80;;
64641;SDS011;59936;51.490;5.436;2023-10-31T05:11:23;33.80;;;18.10;;
64641;SDS011;59936;51.490;5.436;2023-10-31T05:13:52;32.70;;;18.40;;
64641;SDS011;59936;51.490;5.436;2023-10-31T05:16:21;33.70;;;20.00;;
64641;SDS011;59936;51.490;5.436;2023-10-31T05:18:50;32.40;;;18.50;;
64641;SDS011;59936;51.490;5.436;2023-10-31T05:21:19;32.80;;;19.80;;
64641;SDS011;59936;51.490;5.436;2023-10-31T05:23:48;42.30;;;22.90;;
64641;SDS011;59936;51.490;5.436;2023-10-31T05:26:16;36.50;;;21.60;;
64641;SDS011;59936;51.490;5.436;2023-10-31T05:28:45;39.20;;;21.80;;
64641;SDS011;59936;51.490;5.436;2023-10-31T05:31:17;34.50;;;20.30;;
64641;SDS011;59936;51.490;5.436;2023-10-31T05:33:45;39.10;;;22.20;;
64641;SDS011;59936;51.490;5.436;2023-10-31T05:36:17;30.80;;;18.80;;
64641;SDS011;59936;51.490;5.436;2023-10-31T05:38:55;38.00;;;21.60;;
64641;SDS011;59936;51.490;5.436;2023-10-31T05:41:23;38.80;;;20.20;;
64641;SDS011;59936;51.490;5.436;2023-10-31T05:43:52;33.30;;;19.50;;
64641;SDS011;59936;51.490;5.436;2023-10-31T05:46:21;30.70;;;17.80;;
64641;SDS011;59936;51.490;5.436;2023-10-31T05:48:49;34.60;;;21.60;;
64641;SDS011;59936;51.490;5.436;2023-10-31T05:51:18;35.70;;;19.20;;
64641;SDS011;59936;51.490;5.436;2023-10-31T05:53:48;31.60;;;18.60;;
64641;SDS011;59936;51.490;5.436;2023-10-31T05:56:16;35.90;;;19.00;;
64641;SDS011;59936;51.490;5.436;2023-10-31T05:58:45;34.10;;;18.50;;
64641;SDS011;59936;51.490;5.436;2023-10-31T06:01:13;29.70;;;17.60;;
64641;SDS011;59936;51.490;5.436;2023-10-31T06:03:42;29.70;;;17.60;;
64641;SDS011;59936;51.490;5.436;2023-10-31T06:06:12;25.80;;;15.60;;
64641;SDS011;59936;51.490;5.436;2023-10-31T06:08:41;26.60;;;14.80;;
64641;SDS011;59936;51.490;5.436;2023-10-31T06:11:10;31.50;;;16.40;;
64641;SDS011;59936;51.490;5.436;2023-10-31T06:13:38;25.50;;;14.10;;
64641;SDS011;59936;51.490;5.436;2023-10-31T06:16:07;26.60;;;16.10;;
64641;SDS011;59936;51.490;5.436;2023-10-31T06:18:37;27.60;;;15.20;;
64641;SDS011;59936;51.490;5.436;2023-10-31T06:21:06;27.10;;;15.90;;
64641;SDS011;59936;51.490;5.436;2023-10-31T06:23:36;35.70;;;17.30;;
64641;SDS011;59936;51.490;5.436;2023-10-31T06:26:05;29.10;;;16.90;;
64641;SDS011;59936;51.490;5.436;2023-10-31T06:28:34;28.10;;;16.10;;
64641;SDS011;59936;51.490;5.436;2023-10-31T06:31:03;33.70;;;18.00;;
64641;SDS011;59936;51.490;5.436;2023-10-31T06:33:31;26.70;;;16.10;;
64641;SDS011;59936;51.490;5.436;2023-10-31T06:36:00;26.10;;;15.90;;
64641;SDS011;59936;51.490;5.436;2023-10-31T06:38:30;25.50;;;15.10;;
64641;SDS011;59936;51.490;5.436;2023-10-31T06:40:58;25.20;;;15.00;;
64641;SDS011;59936;51.490;5.436;2023-10-31T06:43:29;30.50;;;18.30;;
64641;SDS011;59936;51.490;5.436;2023-10-31T06:45:57;32.20;;;19.30;;
64641;SDS011;59936;51.490;5.436;2023-10-31T06:48:26;31.25;;;19.00;;
64641;SDS011;59936;51.490;5.436;2023-10-31T06:50:54;35.60;;;19.50;;
64641;SDS011;59936;51.490;5.436;2023-10-31T06:53:23;27.00;;;17.50;;
64641;SDS011;59936;51.490;5.436;2023-10-31T06:55:52;35.20;;;20.80;;
64641;SDS011;59936;51.490;5.436;2023-10-31T06:58:20;29.20;;;19.00;;
64641;SDS011;59936;51.490;5.436;2023-10-31T07:00:49;29.10;;;16.40;;
64641;SDS011;59936;51.490;5.436;2023-10-31T07:03:17;38.00;;;21.50;;
64641;SDS011;59936;51.490;5.436;2023-10-31T07:05:46;26.10;;;17.20;;
64641;SDS011;59936;51.490;5.436;2023-10-31T07:08:14;22.90;;;13.90;;
64641;SDS011;59936;51.490;5.436;2023-10-31T07:10:43;23.30;;;13.90;;
64641;SDS011;59936;51.490;5.436;2023-10-31T07:13:12;26.00;;;16.45;;
64641;SDS011;59936;51.490;5.436;2023-10-31T07:15:40;29.90;;;17.10;;
64641;SDS011;59936;51.490;5.436;2023-10-31T07:18:09;26.70;;;16.80;;
64641;SDS011;59936;51.490;5.436;2023-10-31T07:20:37;31.80;;;17.90;;
64641;SDS011;59936;51.490;5.436;2023-10-31T07:23:06;17.50;;;11.70;;
64641;SDS011;59936;51.490;5.436;2023-10-31T07:25:39;27.00;;;14.70;;
64641;SDS011;59936;51.490;5.436;2023-10-31T07:28:07;20.85;;;13.25;;
64641;SDS011;59936;51.490;5.436;2023-10-31T07:30:36;23.20;;;13.80;;
64641;SDS011;59936;51.490;5.436;2023-10-31T07:33:05;23.90;;;15.20;;
64641;SDS011;59936;51.490;5.436;2023-10-31T07:35:33;26.90;;;15.70;;
64641;SDS011;59936;51.490;5.436;2023-10-31T07:38:02;25.00;;;16.20;;
64641;SDS011;59936;51.490;5.436;2023-10-31T07:40:30;26.30;;;16.40;;
64641;SDS011;59936;51.490;5.436;2023-10-31T07:42:59;27.20;;;15.50;;
64641;SDS011;59936;51.490;5.436;2023-10-31T07:45:27;25.20;;;14.50;;
64641;SDS011;59936;51.490;5.436;2023-10-31T07:47:56;25.05;;;15.15;;
64641;SDS011;59936;51.490;5.436;2023-10-31T07:50:25;25.60;;;16.20;;
64641;SDS011;59936;51.490;5.436;2023-10-31T07:52:53;22.20;;;15.50;;
64641;SDS011;59936;51.490;5.436;2023-10-31T07:55:22;37.80;;;21.70;;
64641;SDS011;59936;51.490;5.436;2023-10-31T07:57:50;25.10;;;16.90;;
64641;SDS011;59936;51.490;5.436;2023-10-31T08:00:19;27.00;;;17.60;;
64641;SDS011;59936;51.490;5.436;2023-10-31T08:02:47;31.80;;;20.00;;
64641;SDS011;59936;51.490;5.436;2023-10-31T08:05:16;26.90;;;16.30;;
64641;SDS011;59936;51.490;5.436;2023-10-31T08:07:45;33.60;;;18.70;;
64641;SDS011;59936;51.490;5.436;2023-10-31T08:10:13;32.70;;;18.60;;
64641;SDS011;59936;51.490;5.436;2023-10-31T08:12:42;32.30;;;19.00;;
64641;SDS011;59936;51.490;5.436;2023-10-31T08:15:10;30.10;;;17.00;;
64641;SDS011;59936;51.490;5.436;2023-10-31T08:17:39;27.80;;;16.70;;
64641;SDS011;59936;51.490;5.436;2023-10-31T08:20:08;45.20;;;23.80;;
64641;SDS011;59936;51.490;5.436;2023-10-31T08:22:38;42.80;;;23.60;;
64641;SDS011;59936;51.490;5.436;2023-10-31T08:25:07;41.30;;;22.00;;
64641;SDS011;59936;51.490;5.436;2023-10-31T08:27:37;35.20;;;20.20;;
64641;SDS011;59936;51.490;5.436;2023-10-31T08:30:05;40.30;;;24.00;;
64641;SDS011;59936;51.490;5.436;2023-10-31T08:32:35;38.40;;;20.20;;
64641;SDS011;59936;51.490;5.436;2023-10-31T08:35:03;22.60;;;12.80;;
64641;SDS011;59936;51.490;5.436;2023-10-31T08:37:32;38.10;;;20.50;;
64641;SDS011;59936;51.490;5.436;2023-10-31T08:40:01;39.60;;;20.30;;
64641;SDS011;59936;51.490;5.436;2023-10-31T08:42:35;43.50;;;21.00;;
64641;SDS011;59936;51.490;5.436;2023-10-31T08:45:04;32.40;;;18.60;;
64641;SDS011;59936;51.490;5.436;2023-10-31T08:47:33;33.70;;;18.10;;
64641;SDS011;59936;51.490;5.436;2023-10-31T08:50:02;33.00;;;19.30;;
64641;SDS011;59936;51.490;5.436;2023-10-31T08:52:37;29.02;;;17.23;;
64641;SDS011;59936;51.490;5.436;2023-10-31T08:55:06;33.40;;;19.10;;
64641;SDS011;59936;51.490;5.436;2023-10-31T08:57:35;33.00;;;17.50;;
64641;SDS011;59936;51.490;5.436;2023-10-31T09:00:03;30.40;;;17.50;;
64641;SDS011;59936;51.490;5.436;2023-10-31T09:02:33;24.40;;;15.10;;
64641;SDS011;59936;51.490;5.436;2023-10-31T09:05:01;25.30;;;15.80;;
64641;SDS011;59936;51.490;5.436;2023-10-31T09:07:30;26.40;;;16.50;;
64641;SDS011;59936;51.490;5.436;2023-10-31T09:09:59;31.00;;;17.20;;
64641;SDS011;59936;51.490;5.436;2023-10-31T09:12:28;28.30;;;18.70;;
64641;SDS011;59936;51.490;5.436;2023-10-31T09:14:56;25.50;;;14.90;;
64641;SDS011;59936;51.490;5.436;2023-10-31T09:17:25;21.90;;;14.50;;
64641;SDS011;59936;51.490;5.436;2023-10-31T09:19:54;23.80;;;13.30;;
64641;SDS011;59936;51.490;5.436;2023-10-31T09:22:22;21.00;;;13.30;;
64641;SDS011;59936;51.490;5.436;2023-10-31T09:24:51;25.80;;;13.50;;
64641;SDS011;59936;51.490;5.436;2023-10-31T09:27:19;19.80;;;13.80;;
64641;SDS011;59936;51.490;5.436;2023-10-31T09:29:48;23.90;;;15.40;;
64641;SDS011;59936;51.490;5.436;2023-10-31T09:32:18;24.30;;;16.10;;
64641;SDS011;59936;51.490;5.436;2023-10-31T09:34:46;17.80;;;13.30;;
64641;SDS011;59936;51.490;5.436;2023-10-31T09:37:15;19.80;;;13.90;;
64641;SDS011;59936;51.490;5.436;2023-10-31T09:39:43;16.70;;;11.20;;
64641;SDS011;59936;51.490;5.436;2023-10-31T09:42:13;16.60;;;11.50;;
64641;SDS011;59936;51.490;5.436;2023-10-31T09:44:41;19.40;;;14.20;;
64641;SDS011;59936;51.490;5.436;2023-10-31T09:47:10;26.60;;;15.20;;
64641;SDS011;59936;51.490;5.436;2023-10-31T09:49:40;22.70;;;15.70;;
64641;SDS011;59936;51.490;5.436;2023-10-31T09:52:09;17.30;;;12.70;;
64641;SDS011;59936;51.490;5.436;2023-10-31T09:54:39;24.20;;;15.30;;
64641;SDS011;59936;51.490;5.436;2023-10-31T09:57:13;19.00;;;14.60;;
64641;SDS011;59936;51.490;5.436;2023-10-31T09:59:43;23.00;;;14.05;;
64641;SDS011;59936;51.490;5.436;2023-10-31T10:02:11;14.60;;;11.00;;
64641;SDS011;59936;51.490;5.436;2023-10-31T10:04:40;17.60;;;13.20;;
64641;SDS011;59936;51.490;5.436;2023-10-31T10:07:13;20.10;;;13.80;;
64641;SDS011;59936;51.490;5.436;2023-10-31T10:09:44;17.80;;;13.20;;
64641;SDS011;59936;51.490;5.436;2023-10-31T10:12:17;21.70;;;14.20;;
64641;SDS011;59936;51.490;5.436;2023-10-31T10:14:45;17.10;;;12.60;;
64641;SDS011;59936;51.490;5.436;2023-10-31T10:17:20;15.20;;;11.00;;
64641;SDS011;59936;51.490;5.436;2023-10-31T10:20:07;12.10;;;8.90;;
64641;SDS011;59936;51.490;5.436;2023-10-31T10:22:41;18.50;;;13.30;;
64641;SDS011;59936;51.490;5.436;2023-10-31T10:25:12;20.90;;;13.80;;
64641;SDS011;59936;51.490;5.436;2023-10-31T10:27:44;22.80;;;14.70;;
64641;SDS011;59936;51.490;5.436;2023-10-31T10:30:14;18.50;;;13.60;;
64641;SDS011;59936;51.490;5.436;2023-10-31T10:32:43;21.80;;;13.70;;
64641;SDS011;59936;51.490;5.436;2023-10-31T10:35:12;19.00;;;13.60;;
64641;SDS011;59936;51.490;5.436;2023-10-31T10:37:40;21.40;;;13.50;;
64641;SDS011;59936;51.490;5.436;2023-10-31T10:40:13;17.30;;;13.20;;
64641;SDS011;59936;51.490;5.436;2023-10-31T10:42:47;19.25;;;14.25;;
64641;SDS011;59936;51.490;5.436;2023-10-31T10:45:18;19.90;;;12.90;;
64641;SDS011;59936;51.490;5.436;2023-10-31T10:47:48;21.50;;;14.30;;
64641;SDS011;59936;51.490;5.436;2023-10-31T10:50:18;19.35;;;14.15;;
64641;SDS011;59936;51.490;5.436;2023-10-31T10:52:49;22.30;;;14.00;;
64641;SDS011;59936;51.490;5.436;2023-10-31T10:55:28;20.20;;;15.50;;
64641;SDS011;59936;51.490;5.436;2023-10-31T10:58:07;21.10;;;13.70;;
64641;SDS011;59936;51.490;5.436;2023-10-31T11:00:50;25.00;;;13.70;;
64641;SDS011;59936;51.490;5.436;2023-10-31T11:03:19;19.70;;;13.10;;
64641;SDS011;59936;51.490;5.436;2023-10-31T11:05:51;17.80;;;13.00;;
64641;SDS011;59936;51.490;5.436;2023-10-31T11:08:21;16.40;;;12.40;;
64641;SDS011;59936;51.490;5.436;2023-10-31T11:10:52;15.70;;;11.10;;
64641;SDS011;59936;51.490;5.436;2023-10-31T11:13:22;23.90;;;12.60;;
64641;SDS011;59936;51.490;5.436;2023-10-31T11:15:51;19.50;;;10.50;;
64641;SDS011;59936;51.490;5.436;2023-10-31T11:18:25;17.30;;;11.50;;
64641;SDS011;59936;51.490;5.436;2023-10-31T11:20:54;20.10;;;12.80;;
64641;SDS011;59936;51.490;5.436;2023-10-31T11:23:23;19.60;;;12.00;;
64641;SDS011;59936;51.490;5.436;2023-10-31T11:25:52;17.40;;;11.60;;
64641;SDS011;59936;51.490;5.436;2023-10-31T11:28:20;15.10;;;11.20;;
64641;SDS011;59936;51.490;5.436;2023-10-31T11:30:49;14.80;;;10.00;;
64641;SDS011;59936;51.490;5.436;2023-10-31T11:33:19;17.10;;;10.00;;
64641;SDS011;59936;51.490;5.436;2023-10-31T11:35:59;17.80;;;10.10;;
64641;SDS011;59936;51.490;5.436;2023-10-31T11:38:33;11.70;;;10.00;;
64641;SDS011;59936;51.490;5.436;2023-10-31T11:41:04;14.30;;;10.10;;
64641;SDS011;59936;51.490;5.436;2023-10-31T11:46:20;16.60;;;9.50;;
64641;SDS011;59936;51.490;5.436;2023-10-31T11:48:52;13.50;;;8.60;;
64641;SDS011;59936;51.490;5.436;2023-10-31T11:51:22;11.10;;;8.50;;
64641;SDS011;59936;51.490;5.436;2023-10-31T11:53:51;11.50;;;8.10;;
64641;SDS011;59936;51.490;5.436;2023-10-31T11:56:20;11.60;;;8.10;;
64641;SDS011;59936;51.490;5.436;2023-10-31T11:59:00;10.10;;;7.90;;
64641;SDS011;59936;51.490;5.436;2023-10-31T12:01:31;8.20;;;6.40;;
64641;SDS011;59936;51.490;5.436;2023-10-31T12:04:00;10.90;;;6.30;;
64641;SDS011;59936;51.490;5.436;2023-10-31T12:06:29;9.50;;;5.70;;
64641;SDS011;59936;51.490;5.436;2023-10-31T12:08:59;7.50;;;4.80;;
64641;SDS011;59936;51.490;5.436;2023-10-31T12:11:28;8.10;;;4.70;;
64641;SDS011;59936;51.490;5.436;2023-10-31T12:16:31;6.80;;;4.60;;
64641;SDS011;59936;51.490;5.436;2023-10-31T12:21:42;5.30;;;4.80;;
64641;SDS011;59936;51.490;5.436;2023-10-31T12:24:16;6.20;;;4.60;;
64641;SDS011;59936;51.490;5.436;2023-10-31T12:26:46;6.80;;;4.40;;
64641;SDS011;59936;51.490;5.436;2023-10-31T12:29:16;4.70;;;4.30;;
64641;SDS011;59936;51.490;5.436;2023-10-31T12:31:50;5.40;;;4.30;;
64641;SDS011;59936;51.490;5.436;2023-10-31T12:34:23;4.20;;;3.70;;
64641;SDS011;59936;51.490;5.436;2023-10-31T12:36:53;4.10;;;3.70;;
64641;SDS011;59936;51.490;5.436;2023-10-31T12:39:24;4.85;;;4.15;;
64641;SDS011;59936;51.490;5.436;2023-10-31T12:41:55;4.10;;;3.70;;
64641;SDS011;59936;51.490;5.436;2023-10-31T12:44:25;6.40;;;3.40;;
64641;SDS011;59936;51.490;5.436;2023-10-31T12:46:54;5.30;;;3.10;;
64641;SDS011;59936;51.490;5.436;2023-10-31T12:49:23;7.00;;;3.60;;
64641;SDS011;59936;51.490;5.436;2023-10-31T12:51:58;3.80;;;3.50;;
64641;SDS011;59936;51.490;5.436;2023-10-31T12:54:36;6.10;;;3.25;;
64641;SDS011;59936;51.490;5.436;2023-10-31T12:57:06;5.40;;;3.00;;
64641;SDS011;59936;51.490;5.436;2023-10-31T12:59:37;4.40;;;2.70;;
64641;SDS011;59936;51.490;5.436;2023-10-31T13:02:06;3.50;;;2.70;;
64641;SDS011;59936;51.490;5.436;2023-10-31T13:04:36;3.70;;;3.00;;
64641;SDS011;59936;51.490;5.436;2023-10-31T13:07:05;4.60;;;2.60;;
64641;SDS011;59936;51.490;5.436;2023-10-31T13:09:36;3.40;;;2.70;;
64641;SDS011;59936;51.490;5.436;2023-10-31T13:12:06;2.80;;;2.50;;
64641;SDS011;59936;51.490;5.436;2023-10-31T13:14:36;5.50;;;2.80;;
64641;SDS011;59936;51.490;5.436;2023-10-31T13:17:05;8.50;;;2.80;;
64641;SDS011;59936;51.490;5.436;2023-10-31T13:19:33;8.00;;;2.75;;
64641;SDS011;59936;51.490;5.436;2023-10-31T13:22:02;4.10;;;2.30;;
64641;SDS011;59936;51.490;5.436;2023-10-31T13:24:31;3.60;;;2.50;;
64641;SDS011;59936;51.490;5.436;2023-10-31T13:27:03;3.40;;;2.70;;
64641;SDS011;59936;51.490;5.436;2023-10-31T13:29:32;2.35;;;2.10;;
64641;SDS011;59936;51.490;5.436;2023-10-31T13:32:00;3.50;;;2.50;;
64641;SDS011;59936;51.490;5.436;2023-10-31T13:34:29;4.40;;;2.30;;
64641;SDS011;59936;51.490;5.436;2023-10-31T13:37:02;3.30;;;2.10;;
64641;SDS011;59936;51.490;5.436;2023-10-31T13:39:30;3.20;;;2.30;;
64641;SDS011;59936;51.490;5.436;2023-10-31T13:41:59;3.80;;;1.70;;
64641;SDS011;59936;51.490;5.436;2023-10-31T13:44:28;3.30;;;2.10;;
64641;SDS011;59936;51.490;5.436;2023-10-31T13:46:56;4.30;;;2.10;;
64641;SDS011;59936;51.490;5.436;2023-10-31T13:49:25;6.70;;;2.00;;
64641;SDS011;59936;51.490;5.436;2023-10-31T13:51:53;8.00;;;2.40;;
64641;SDS011;59936;51.490;5.436;2023-10-31T13:54:22;4.50;;;2.70;;
64641;SDS011;59936;51.490;5.436;2023-10-31T13:56:50;6.65;;;2.55;;
64641;SDS011;59936;51.490;5.436;2023-10-31T13:59:19;7.00;;;2.60;;
64641;SDS011;59936;51.490;5.436;2023-10-31T14:01:48;5.40;;;2.70;;
64641;SDS011;59936;51.490;5.436;2023-10-31T14:04:18;5.00;;;2.50;;
64641;SDS011;59936;51.490;5.436;2023-10-31T14:06:47;5.10;;;2.50;;
64641;SDS011;59936;51.490;5.436;2023-10-31T14:09:16;3.70;;;2.20;;
64641;SDS011;59936;51.490;5.436;2023-10-31T14:11:45;4.90;;;2.20;;
64641;SDS011;59936;51.490;5.436;2023-10-31T14:14:13;2.85;;;2.40;;
64641;SDS011;59936;51.490;5.436;2023-10-31T14:16:42;6.20;;;2.50;;
64641;SDS011;59936;51.490;5.436;2023-10-31T14:19:11;5.50;;;2.90;;
64641;SDS011;59936;51.490;5.436;2023-10-31T14:21:41;5.70;;;2.70;;
64641;SDS011;59936;51.490;5.436;2023-10-31T14:24:09;9.20;;;2.90;;
64641;SDS011;59936;51.490;5.436;2023-10-31T14:26:38;7.20;;;3.30;;
64641;SDS011;59936;51.490;5.436;2023-10-31T14:29:07;6.70;;;2.70;;
64641;SDS011;59936;51.490;5.436;2023-10-31T14:31:39;10.50;;;3.50;;
64641;SDS011;59936;51.490;5.436;2023-10-31T14:34:09;5.00;;;2.90;;
64641;SDS011;59936;51.490;5.436;2023-10-31T14:36:37;5.30;;;3.10;;
64641;SDS011;59936;51.490;5.436;2023-10-31T14:39:06;5.80;;;3.10;;
64641;SDS011;59936;51.490;5.436;2023-10-31T14:41:35;10.50;;;3.20;;
64641;SDS011;59936;51.490;5.436;2023-10-31T14:44:04;8.80;;;3.90;;
64641;SDS011;59936;51.490;5.436;2023-10-31T14:46:33;7.80;;;3.20;;
64641;SDS011;59936;51.490;5.436;2023-10-31T14:49:01;8.00;;;3.70;;
64641;SDS011;59936;51.490;5.436;2023-10-31T14:51:30;5.45;;;3.85;;